METAR Data
IDs: Format: Raw Decoded Include TAF

Data at: 0455 UTC 24 Sep 2020

KIAD 240452Z 00000KT 10SM BKN250 14/12 A2999 RMK AO2 SLP154 T01390117 402720072 $

KIAD 232323Z 2400/2506 23004KT P6SM SCT250
  FM240300 VRB03KT P6SM BKN250
  FM241600 21008KT P6SM FEW060 BKN130
  FM242000 21008G16KT P6SM FEW060 BKN130
  FM250000 21005KT P6SM FEW060 BKN130